Time;durP1;ratioP1;P1;durP2;ratioP2;P2;SDS_P1;SDS_P2;PMS_P1;PMS_P2;Temp;Humidity;BMP_temperature;BMP_pressure;BME280_temperature;BME280_humidity;BME280_pressure;Samples;Min_cycle;Max_cycle;Signal;HPM_P1;HPM_P2
2021/05/16 00:02:17;;;;;;;3.60;2.10;;;;;;;10.34;100.00;99275.59;5191425;28;20091;-78
2021/05/16 00:04:47;;;;;;;3.55;2.20;;;;;;;10.21;100.00;99276.34;5196392;28;20475;-77
2021/05/16 00:07:18;;;;;;;4.03;2.20;;;;;;;10.17;100.00;99274.84;5192035;28;20080;-77
2021/05/16 00:09:48;;;;;;;3.20;1.90;;;;;;;10.21;100.00;99276.34;5197665;28;20029;-77
2021/05/16 00:12:19;;;;;;;3.25;1.88;;;;;;;9.98;100.00;99280.16;5202239;28;20479;-77
2021/05/16 00:14:49;;;;;;;3.58;2.00;;;;;;;9.81;100.00;99267.19;5202766;28;20056;-78
2021/05/16 00:17:19;;;;;;;4.90;2.17;;;;;;;10.00;100.00;99273.09;5207252;28;20054;-78
2021/05/16 00:19:51;;;;;;;5.43;2.40;;;;;;;9.86;100.00;99270.38;5207238;28;20636;-78
2021/05/16 00:22:21;;;;;;;3.10;2.22;;;;;;;9.92;100.00;99274.44;5205210;28;20037;-77
2021/05/16 00:24:51;;;;;;;3.63;2.30;;;;;;;9.73;100.00;99273.72;5206772;28;20626;-77
2021/05/16 00:27:22;;;;;;;4.63;2.30;;;;;;;9.66;100.00;99272.38;5206189;28;20423;-78
2021/05/16 00:29:52;;;;;;;4.18;2.30;;;;;;;9.75;100.00;99269.28;5206786;28;20017;-78
2021/05/16 00:32:22;;;;;;;3.75;2.22;;;;;;;9.75;100.00;99266.66;5205343;28;20070;-78
2021/05/16 00:34:52;;;;;;;3.83;2.15;;;;;;;9.77;100.00;99270.03;5200572;28;20491;-78
2021/05/16 00:37:23;;;;;;;3.38;2.40;;;;;;;9.73;100.00;99273.72;5206030;28;20021;-77
2021/05/16 00:39:55;;;;;;;5.25;2.40;;;;;;;9.74;100.00;99276.28;5206655;28;20038;-78
2021/05/16 00:42:25;;;;;;;3.58;2.40;;;;;;;9.86;100.00;99274.78;5206839;28;20087;-77
2021/05/16 00:45:12;;;;;;;3.63;2.20;;;;;;;9.85;100.00;99278.31;5206638;28;20114;-78
2021/05/16 00:47:51;;;;;;;6.50;2.58;;;;;;;9.81;100.00;99271.56;5203726;28;20771;-78
2021/05/16 00:50:24;;;;;;;4.85;2.70;;;;;;;9.73;100.00;99263.28;5202947;28;20048;-78
2021/05/16 00:52:56;;;;;;;4.72;2.50;;;;;;;9.84;100.00;99266.19;5206592;28;20029;-78
2021/05/16 00:55:26;;;;;;;5.63;2.38;;;;;;;9.88;100.00;99267.69;5192637;28;20061;-76
2021/05/16 00:57:57;;;;;;;4.85;2.70;;;;;;;9.85;100.00;99270.47;5186749;28;20519;-78
2021/05/16 01:00:35;;;;;;;7.50;2.92;;;;;;;9.81;100.00;99267.19;5199087;28;20037;-78
2021/05/16 01:03:06;;;;;;;3.42;2.60;;;;;;;9.84;100.00;99269.63;5205572;28;20030;-79
2021/05/16 01:05:38;;;;;;;4.53;2.70;;;;;;;9.95;100.00;99272.50;5184045;28;20036;-78
2021/05/16 01:08:09;;;;;;;4.10;2.67;;;;;;;9.98;100.00;99269.72;5207122;28;20057;-77
2021/05/16 01:10:40;;;;;;;6.93;2.92;;;;;;;10.01;100.00;99260.91;5207223;28;20029;-78
2021/05/16 01:13:12;;;;;;;5.95;2.75;;;;;;;10.09;100.00;99263.97;5207706;28;20143;-77
2021/05/16 01:15:44;;;;;;;7.43;2.58;;;;;;;10.01;100.00;99256.53;5216815;22;20038;-81
2021/05/16 01:18:16;;;;;;;4.60;2.90;;;;;;;10.02;100.00;99255.63;5201618;28;20041;-81
2021/05/16 01:20:50;;;;;;;5.68;2.92;;;;;;;10.09;100.00;99261.34;5180428;28;20168;-81
2021/05/16 01:23:31;;;;;;;4.15;2.40;;;;;;;10.25;100.00;99265.66;5181458;28;20025;-81
2021/05/16 01:26:02;;;;;;;3.83;2.67;;;;;;;10.28;100.00;99257.66;5179073;28;20025;-81
2021/05/16 01:28:32;;;;;;;4.97;2.67;;;;;;;10.22;100.00;99257.16;5191250;28;20414;-81
2021/05/16 01:31:04;;;;;;;4.75;2.80;;;;;;;10.33;100.00;99260.03;5180703;28;20080;-81
2021/05/16 01:33:34;;;;;;;6.05;2.63;;;;;;;10.36;100.00;99265.06;5194209;28;20034;-81
2021/05/16 01:36:05;;;;;;;4.78;2.70;;;;;;;10.42;100.00;99265.56;5176205;28;20022;-81
2021/05/16 01:38:35;;;;;;;4.97;2.70;;;;;;;10.48;100.00;99260.00;5174606;28;20026;-81
2021/05/16 01:41:05;;;;;;;5.40;2.97;;;;;;;10.58;100.00;99268.16;5175939;28;20034;-81
2021/05/16 01:43:38;;;;;;;4.35;2.63;;;;;;;10.64;100.00;99273.03;5167261;28;20529;-81
2021/05/16 01:46:08;;;;;;;5.70;2.80;;;;;;;10.41;100.00;99271.72;5166363;28;20027;-81
2021/05/16 01:48:38;;;;;;;4.97;3.00;;;;;;;10.50;100.00;99272.97;5166997;28;20041;-81
2021/05/16 01:51:09;;;;;;;5.82;2.80;;;;;;;10.46;100.00;99271.44;5167935;28;20034;-81
2021/05/16 01:53:41;;;;;;;4.97;3.20;;;;;;;10.56;100.00;99276.09;5166295;28;20018;-81
2021/05/16 01:56:20;;;;;;;4.30;2.80;;;;;;;10.59;100.00;99272.44;5170760;28;20108;-81
2021/05/16 01:58:51;;;;;;;5.93;2.97;;;;;;;10.66;100.00;99263.34;5171281;28;20030;-81
2021/05/16 02:01:22;;;;;;;4.88;2.67;;;;;;;10.65;100.00;99259.88;5164791;28;20116;-81
2021/05/16 02:03:53;;;;;;;4.25;2.85;;;;;;;10.64;100.00;99270.41;5185468;28;20054;-81
2021/05/16 02:06:24;;;;;;;6.97;3.13;;;;;;;10.60;100.00;99261.06;5171038;28;20047;-81
2021/05/16 02:08:55;;;;;;;4.18;2.50;;;;;;;10.60;100.00;99267.16;5187287;28;20094;-81
2021/05/16 02:11:25;;;;;;;4.93;2.85;;;;;;;10.68;100.00;99271.94;5186982;28;20105;-81
2021/05/16 02:13:55;;;;;;;4.47;2.83;;;;;;;10.65;100.00;99265.13;5171889;28;20061;-81
2021/05/16 02:16:26;;;;;;;6.38;3.10;;;;;;;10.58;100.00;99278.59;5177771;28;20083;-81
2021/05/16 02:18:56;;;;;;;4.68;2.92;;;;;;;10.37;100.00;99267.56;5171985;28;20398;-81
2021/05/16 02:21:26;;;;;;;5.55;3.20;;;;;;;10.28;100.00;99272.47;5193223;28;20089;-81
2021/05/16 02:23:57;;;;;;;5.03;3.00;;;;;;;10.34;100.00;99274.75;5185439;28;20018;-81
2021/05/16 02:26:27;;;;;;;4.50;2.90;;;;;;;10.39;100.00;99276.19;5189936;28;20028;-81
2021/05/16 02:28:57;;;;;;;8.18;3.58;;;;;;;10.20;100.00;99275.50;5207366;28;20118;-81
2021/05/16 02:31:28;;;;;;;7.63;3.60;;;;;;;10.36;100.00;99275.50;5208399;28;20028;-81
2021/05/16 02:33:59;;;;;;;5.00;3.08;;;;;;;10.33;100.00;99275.69;5186400;28;20468;-81
2021/05/16 02:36:30;;;;;;;4.43;3.20;;;;;;;10.32;100.00;99280.06;5190035;28;20021;-81
2021/05/16 02:39:01;;;;;;;4.72;3.10;;;;;;;10.40;100.00;99277.03;5188745;28;20021;-81
2021/05/16 02:41:32;;;;;;;6.88;3.00;;;;;;;10.48;100.00;99285.28;5189912;28;20025;-81
2021/05/16 02:44:03;;;;;;;5.55;3.28;;;;;;;10.54;100.00;99277.09;5209480;28;20040;-81
2021/05/16 02:46:34;;;;;;;3.80;3.00;;;;;;;10.63;100.00;99284.41;5190676;28;20032;-81
2021/05/16 02:49:05;;;;;;;5.45;3.45;;;;;;;10.56;100.00;99283.94;5207106;28;20105;-81
2021/05/16 02:51:36;;;;;;;5.82;2.95;;;;;;;10.63;100.00;99287.00;5207988;28;20100;-82
2021/05/16 02:54:07;;;;;;;5.80;2.97;;;;;;;10.68;100.00;99287.63;5205550;28;20040;-82
2021/05/16 02:56:37;;;;;;;4.28;3.17;;;;;;;10.57;100.00;99285.63;5189109;28;20025;-81
2021/05/16 02:59:07;;;;;;;6.07;3.20;;;;;;;10.60;100.00;99285.44;5191004;28;20029;-81
2021/05/16 03:01:38;;;;;;;6.32;2.90;;;;;;;10.59;100.00;99288.13;5189532;28;20021;-81
2021/05/16 03:04:08;;;;;;;5.03;2.78;;;;;;;10.57;100.00;99282.16;5181713;28;20372;-81
2021/05/16 03:06:39;;;;;;;3.53;2.55;;;;;;;10.73;100.00;99280.34;5203274;28;20029;-81
2021/05/16 03:09:09;;;;;;;6.28;2.70;;;;;;;10.67;100.00;99285.94;5188590;28;20533;-81
2021/05/16 03:11:40;;;;;;;5.38;2.80;;;;;;;10.63;100.00;99284.41;5187392;28;20025;-81
2021/05/16 03:14:10;;;;;;;5.20;3.13;;;;;;;10.57;100.00;99290.84;5206264;28;20036;-82
2021/05/16 03:16:40;;;;;;;5.75;3.13;;;;;;;10.47;100.00;99294.03;5187761;28;20025;-82
2021/05/16 03:19:11;;;;;;;4.53;2.95;;;;;;;10.58;100.00;99291.66;5188788;28;20617;-82
2021/05/16 03:21:41;;;;;;;4.63;2.90;;;;;;;10.47;100.00;99294.03;5187319;28;20021;-82
2021/05/16 03:24:12;;;;;;;3.90;2.72;;;;;;;10.48;100.00;99290.50;5187653;28;20036;-81
2021/05/16 03:26:42;;;;;;;5.95;3.00;;;;;;;10.35;100.00;99294.72;5206411;28;20033;-81
2021/05/16 03:29:13;;;;;;;4.18;2.80;;;;;;;10.39;100.00;99285.78;5188163;28;20507;-82
2021/05/16 03:31:43;;;;;;;5.05;2.80;;;;;;;10.43;100.00;99298.59;5187296;28;20036;-81
2021/05/16 03:34:14;;;;;;;6.22;2.63;;;;;;;10.38;100.00;99287.53;5184264;28;20496;-81
2021/05/16 03:36:44;;;;;;;5.28;2.38;;;;;;;10.59;100.00;99295.97;5181397;28;20121;-82
2021/05/16 03:39:14;;;;;;;6.55;2.70;;;;;;;10.55;100.00;99294.44;5188188;28;20063;-81
2021/05/16 03:41:47;;;;;;;5.30;2.40;;;;;;;10.53;100.00;99298.94;5188400;28;20032;-81
2021/05/16 03:44:17;;;;;;;6.60;2.50;;;;;;;10.67;100.00;99293.78;5188651;28;20033;-82
2021/05/16 03:46:48;;;;;;;4.00;2.38;;;;;;;10.65;100.00;99298.25;5206164;28;20032;-81
2021/05/16 03:49:18;;;;;;;4.20;2.42;;;;;;;10.60;100.00;99298.50;5189453;28;20121;-82
2021/05/16 03:51:48;;;;;;;7.82;2.95;;;;;;;10.31;100.00;99288.00;5192020;28;20128;-82
2021/05/16 03:54:19;;;;;;;7.60;2.80;;;;;;;10.39;100.00;99301.44;5210427;28;20040;-82
2021/05/16 03:56:49;;;;;;;5.15;2.33;;;;;;;10.48;100.00;99308.78;5210400;28;20105;-81
2021/05/16 03:59:20;;;;;;;5.53;2.50;;;;;;;10.53;100.00;99304.97;5192748;28;20108;-81
2021/05/16 04:01:51;;;;;;;9.43;2.63;;;;;;;10.67;100.00;99315.50;5192154;28;20224;-81
2021/05/16 04:04:21;;;;;;;6.47;2.47;;;;;;;10.65;100.00;99311.31;5186516;28;20034;-81
2021/05/16 04:06:51;;;;;;;4.93;2.40;;;;;;;10.79;100.00;99319.19;5210094;28;20100;-82
2021/05/16 04:09:22;;;;;;;4.22;2.22;;;;;;;10.85;100.00;99305.81;5193504;28;20037;-82
2021/05/16 04:11:52;;;;;;;6.25;2.50;;;;;;;11.06;100.00;99308.88;5211519;28;20032;-81
2021/05/16 04:14:24;;;;;;;8.80;2.58;;;;;;;11.19;100.00;99315.06;5193581;28;20033;-81
2021/05/16 04:16:55;;;;;;;4.85;2.20;;;;;;;11.36;100.00;99308.84;5193646;28;20454;-81
2021/05/16 04:19:26;;;;;;;6.90;2.30;;;;;;;11.36;100.00;99308.84;5190226;28;20025;-81
2021/05/16 04:21:56;;;;;;;7.90;2.40;;;;;;;11.45;100.00;99310.94;5185375;28;20032;-82
2021/05/16 04:24:26;;;;;;;8.18;2.17;;;;;;;11.65;100.00;99324.53;5211343;28;20033;-81
2021/05/16 04:26:57;;;;;;;6.88;1.83;;;;;;;11.84;100.00;99312.03;5211833;28;20026;-81
2021/05/16 04:29:28;;;;;;;6.57;1.90;;;;;;;11.66;100.00;99323.63;5193544;28;20526;-81
2021/05/16 04:31:58;;;;;;;6.28;1.70;;;;;;;11.53;100.00;99316.53;5193106;28;20116;-81
2021/05/16 04:34:28;;;;;;;6.45;1.77;;;;;;;11.53;100.00;99312.16;5199639;28;20053;-81
2021/05/16 04:36:59;;;;;;;6.70;1.90;;;;;;;11.60;100.00;99313.50;5192316;28;20022;-81
2021/05/16 04:39:29;;;;;;;4.43;1.70;;;;;;;11.47;100.00;99317.75;5211197;28;20033;-81
2021/05/16 04:41:59;;;;;;;6.75;1.88;;;;;;;11.42;100.00;99321.59;5192295;28;20029;-82
2021/05/16 04:44:30;;;;;;;5.68;1.58;;;;;;;11.39;100.00;99319.13;5193038;28;20322;-82
2021/05/16 04:47:00;;;;;;;5.00;1.83;;;;;;;11.35;100.00;99323.72;5210404;28;20025;-81
2021/05/16 04:49:31;;;;;;;5.63;1.80;;;;;;;11.48;100.00;99314.19;5192697;28;20089;-81
2021/05/16 04:52:01;;;;;;;6.80;2.03;;;;;;;11.49;100.00;99321.13;5192680;28;20025;-82
2021/05/16 04:54:32;;;;;;;4.35;1.60;;;;;;;11.37;100.00;99316.63;5210874;28;20040;-82
2021/05/16 04:57:03;;;;;;;4.95;1.95;;;;;;;11.87;100.00;99311.84;5192221;28;20695;-82
2021/05/16 04:59:33;;;;;;;6.53;1.90;;;;;;;11.56;100.00;99317.25;5191610;28;20124;-81
2021/05/16 05:02:06;;;;;;;7.65;1.80;;;;;;;11.61;100.00;99320.41;5206892;28;20037;-82
2021/05/16 05:04:36;;;;;;;7.32;1.60;;;;;;;11.64;100.00;99324.63;5178011;28;20025;-81
2021/05/16 05:07:07;;;;;;;5.55;2.03;;;;;;;11.58;100.00;99319.78;5191573;28;20017;-81
2021/05/16 05:09:38;;;;;;;7.45;2.03;;;;;;;11.73;100.00;99324.94;5209299;28;20108;-81
2021/05/16 05:12:09;;;;;;;5.53;1.95;;;;;;;11.57;100.00;99318.06;5207958;28;20638;-82
2021/05/16 05:14:39;;;;;;;8.60;2.15;;;;;;;11.57;100.00;99328.53;5208878;28;20036;-81
2021/05/16 05:17:10;;;;;;;7.18;1.80;;;;;;;11.72;100.00;99323.25;5209179;28;20622;-82
2021/05/16 05:19:40;;;;;;;6.00;1.80;;;;;;;11.73;100.00;99331.91;5191247;28;20120;-82
2021/05/16 05:22:10;;;;;;;6.70;1.80;;;;;;;11.84;100.00;99327.75;5190394;28;20109;-82
2021/05/16 05:24:40;;;;;;;7.25;2.10;;;;;;;11.78;100.00;99333.34;5191584;28;20017;-81
2021/05/16 05:27:11;;;;;;;5.88;1.90;;;;;;;12.05;100.00;99325.56;5191891;28;20025;-81
2021/05/16 05:29:41;;;;;;;8.95;1.90;;;;;;;12.85;100.00;99322.13;5192291;28;20040;-82
2021/05/16 05:32:13;;;;;;;5.72;1.67;;;;;;;15.00;92.15;99314.84;5209058;28;20036;-83
2021/05/16 05:34:43;;;;;;;5.30;1.45;;;;;;;15.90;83.60;99321.13;5188092;28;20031;-82
2021/05/16 05:37:14;;;;;;;4.45;1.30;;;;;;;15.91;84.31;99314.06;5191335;28;20029;-82
2021/05/16 05:39:44;;;;;;;5.25;1.40;;;;;;;15.34;84.58;99319.34;5192058;28;20029;-83
2021/05/16 05:42:14;;;;;;;9.65;1.63;;;;;;;14.87;85.89;99340.38;5210286;28;20471;-83
2021/05/16 05:44:44;;;;;;;4.85;1.50;;;;;;;15.27;85.80;99326.00;5210241;28;20034;-83
2021/05/16 05:47:15;;;;;;;3.75;1.10;;;;;;;15.83;83.64;99326.97;5192323;28;20025;-82
2021/05/16 05:49:45;;;;;;;4.88;1.50;;;;;;;16.56;79.82;99318.50;5210171;28;20032;-82
2021/05/16 05:52:16;;;;;;;6.22;1.33;;;;;;;19.05;72.02;99313.66;5191530;28;20487;-82
2021/05/16 05:54:46;;;;;;;5.53;1.20;;;;;;;19.58;69.86;99301.72;5210806;28;20028;-82
2021/05/16 05:57:17;;;;;;;5.97;1.42;;;;;;;20.59;67.50;99301.66;5198672;28;20303;-83
2021/05/16 05:59:48;;;;;;;6.20;1.30;;;;;;;21.38;66.25;99306.19;5210813;28;20544;-82
2021/05/16 06:02:18;;;;;;;5.13;1.30;;;;;;;21.04;64.29;99306.00;5199936;28;20021;-82
2021/05/16 06:04:48;;;;;;;7.38;1.67;;;;;;;18.15;73.00;99320.94;5202755;28;20057;-82
2021/05/16 06:07:19;;;;;;;4.82;1.60;;;;;;;18.12;74.17;99323.81;5188243;28;20036;-82
2021/05/16 06:09:49;;;;;;;5.15;1.50;;;;;;;16.89;78.76;99321.94;5170521;28;20028;-81
2021/05/16 06:12:19;;;;;;;6.05;1.60;;;;;;;16.16;80.55;99319.97;5200248;28;20024;-82
2021/05/16 06:14:53;;;;;;;6.78;1.83;;;;;;;16.86;79.55;99309.00;5194635;28;20025;-83
2021/05/16 06:17:23;;;;;;;7.63;1.50;;;;;;;16.47;80.95;99315.78;5197677;28;20026;-81
2021/05/16 06:19:53;;;;;;;7.63;1.80;;;;;;;17.39;76.88;99310.72;5198345;28;20035;-82
2021/05/16 06:22:24;;;;;;;5.55;1.30;;;;;;;18.03;77.84;99308.75;5194110;28;20315;-82
2021/05/16 06:24:54;;;;;;;7.05;1.50;;;;;;;18.03;77.22;99316.69;5192235;28;20029;-83
2021/05/16 06:27:25;;;;;;;5.88;1.60;;;;;;;18.26;75.16;99304.94;5193411;28;20017;-82
2021/05/16 06:29:55;;;;;;;7.15;1.70;;;;;;;18.32;72.37;99301.81;5193154;28;20556;-81
2021/05/16 06:32:26;;;;;;;7.32;1.60;;;;;;;19.25;71.52;99308.28;5180701;28;20055;-83
2021/05/16 06:34:56;;;;;;;5.20;1.58;;;;;;;19.98;69.47;99304.97;5180545;28;20102;-82
2021/05/16 06:37:26;;;;;;;6.28;1.60;;;;;;;20.28;69.24;99304.78;5177174;28;20026;-83
2021/05/16 06:39:56;;;;;;;7.93;1.70;;;;;;;19.17;71.89;99309.97;5193786;28;20036;-83
2021/05/16 06:42:27;;;;;;;6.73;1.67;;;;;;;19.58;70.92;99302.53;5193259;28;20025;-83
2021/05/16 06:44:57;;;;;;;6.95;1.60;;;;;;;19.45;70.27;99311.78;5191841;28;20363;-81
2021/05/16 06:47:27;;;;;;;8.60;1.67;;;;;;;20.31;68.83;99320.41;5192434;28;20027;-82
2021/05/16 06:49:58;;;;;;;8.20;1.90;;;;;;;20.24;68.74;99306.88;5193086;28;20310;-80
2021/05/16 06:52:28;;;;;;;8.57;1.60;;;;;;;19.77;69.27;99314.94;5192263;28;20359;-82
2021/05/16 06:54:58;;;;;;;7.50;1.80;;;;;;;18.92;69.44;99324.53;5210284;28;20053;-83
2021/05/16 06:57:29;;;;;;;6.30;1.50;;;;;;;18.19;70.72;99319.69;5191488;28;20302;-82
2021/05/16 06:59:59;;;;;;;8.43;1.60;;;;;;;17.72;72.52;99313.19;5191388;28;20107;-83
2021/05/16 07:02:29;;;;;;;7.10;1.40;;;;;;;16.59;76.35;99323.53;5178567;28;20034;-81
2021/05/16 07:05:00;;;;;;;7.50;1.80;;;;;;;16.33;78.42;99331.81;5192082;28;20148;-81
2021/05/16 07:07:30;;;;;;;7.55;1.80;;;;;;;15.84;77.93;99324.25;5196101;28;20632;-81
2021/05/16 07:10:00;;;;;;;9.63;1.83;;;;;;;16.63;77.81;99325.00;5180513;28;20049;-81
2021/05/16 07:12:31;;;;;;;10.48;1.85;;;;;;;18.05;73.49;99322.69;5195825;28;20048;-81
2021/05/16 07:15:01;;;;;;;6.53;1.50;;;;;;;20.07;67.97;99320.03;5190031;28;20026;-81
2021/05/16 07:17:35;;;;;;;8.48;1.90;;;;;;;18.71;70.03;99324.78;5206555;22;20435;-81
2021/05/16 07:20:06;;;;;;;7.57;1.88;;;;;;;18.16;70.43;99326.06;5188167;28;20033;-81
2021/05/16 07:22:37;;;;;;;10.77;1.90;;;;;;;18.12;70.51;99329.09;5200903;28;20031;-83
2021/05/16 07:25:08;;;;;;;8.35;1.98;;;;;;;18.83;67.15;99325.38;5184424;28;20120;-81
2021/05/16 07:27:38;;;;;;;8.65;1.70;;;;;;;20.07;66.60;99318.25;5189671;28;20109;-80
2021/05/16 07:30:09;;;;;;;8.15;1.92;;;;;;;20.59;63.83;99312.28;5192571;28;20061;-85
2021/05/16 07:32:40;;;;;;;8.93;2.00;;;;;;;20.96;62.09;99311.25;5187467;28;20173;-81
2021/05/16 07:35:10;;;;;;;9.13;1.97;;;;;;;20.51;63.07;99319.31;5188470;28;20070;-80
2021/05/16 07:37:42;;;;;;;8.82;2.03;;;;;;;19.66;65.22;99326.56;5188421;28;20786;-82
2021/05/16 07:40:13;;;;;;;7.03;1.85;;;;;;;18.57;65.94;99333.09;5202765;28;20117;-79
2021/05/16 07:42:43;;;;;;;10.68;2.00;;;;;;;18.10;66.07;99333.69;5202260;28;20108;-79
2021/05/16 07:45:14;;;;;;;8.88;2.47;;;;;;;18.72;65.63;99332.56;5201297;28;20026;-81
2021/05/16 07:47:44;;;;;;;10.10;2.20;;;;;;;18.86;65.96;99334.84;5190265;28;20428;-80
2021/05/16 07:50:15;;;;;;;9.98;2.25;;;;;;;19.80;63.46;99328.72;5197812;28;20064;-79
2021/05/16 07:52:45;;;;;;;7.63;1.88;;;;;;;20.35;63.51;99332.38;5185140;28;20109;-78
2021/05/16 07:55:16;;;;;;;11.18;2.55;;;;;;;19.35;64.14;99329.47;5181275;28;20452;-81
2021/05/16 07:57:48;;;;;;;11.38;2.42;;;;;;;18.79;64.99;99336.38;5195297;28;20044;-80
2021/05/16 08:00:18;;;;;;;8.20;2.03;;;;;;;17.44;67.43;99339.38;5202165;28;20442;-81
2021/05/16 08:02:48;;;;;;;10.18;2.30;;;;;;;17.09;68.18;99330.84;5197015;28;20021;-78
2021/05/16 08:05:19;;;;;;;10.68;2.40;;;;;;;17.29;68.80;99343.28;5180940;28;20034;-78
2021/05/16 08:07:49;;;;;;;12.00;2.23;;;;;;;17.58;68.68;99331.16;5181678;28;20504;-78
2021/05/16 08:10:21;;;;;;;11.63;2.05;;;;;;;17.49;68.73;99331.94;5196795;28;20286;-78
2021/05/16 08:12:52;;;;;;;13.20;2.45;;;;;;;16.91;69.91;99335.00;5190914;28;20026;-79
2021/05/16 08:15:24;;;;;;;13.32;2.20;;;;;;;16.41;72.84;99346.09;5186644;28;20147;-80
2021/05/16 08:17:56;;;;;;;9.32;2.33;;;;;;;18.74;67.86;99334.13;5185908;28;20117;-79
2021/05/16 08:20:27;;;;;;;14.50;2.83;;;;;;;19.40;64.56;99314.84;5182474;28;20120;-81
2021/05/16 08:22:57;;;;;;;13.05;3.03;;;;;;;19.09;66.04;99318.56;5180625;28;20029;-79
2021/05/16 08:25:27;;;;;;;12.43;2.60;;;;;;;19.73;65.64;99327.63;5185326;28;20080;-78
2021/05/16 08:27:58;;;;;;;11.13;2.70;;;;;;;19.99;63.80;99318.06;5180247;28;20075;-78
2021/05/16 08:30:29;;;;;;;12.63;2.65;;;;;;;19.80;64.31;99318.13;5181842;28;20026;-78
2021/05/16 08:32:59;;;;;;;11.98;2.70;;;;;;;19.64;64.76;99317.88;5181041;28;20026;-80
2021/05/16 08:35:29;;;;;;;11.65;3.00;;;;;;;18.51;66.55;99323.88;5180896;28;20025;-82
2021/05/16 08:38:00;;;;;;;14.00;2.60;;;;;;;17.86;67.39;99315.47;5182627;28;20026;-78
2021/05/16 08:40:30;;;;;;;12.05;2.40;;;;;;;17.25;67.77;99328.63;5185790;28;20062;-77
2021/05/16 08:43:02;;;;;;;13.13;2.60;;;;;;;16.65;70.32;99330.13;5191281;28;20080;-78
2021/05/16 08:45:33;;;;;;;12.73;2.53;;;;;;;16.87;70.92;99328.28;5187334;28;20125;-78
2021/05/16 08:48:04;;;;;;;13.13;2.72;;;;;;;16.65;72.06;99332.78;5186796;28;20502;-79
2021/05/16 08:50:35;;;;;;;13.68;2.33;;;;;;;16.63;73.45;99334.69;5185615;28;20025;-78
2021/05/16 08:53:06;;;;;;;12.93;2.38;;;;;;;16.25;74.11;99334.22;5188697;28;20627;-78
2021/05/16 08:55:36;;;;;;;10.68;2.20;;;;;;;16.00;74.80;99329.16;5188239;28;20030;-79
2021/05/16 08:58:08;;;;;;;11.73;2.40;;;;;;;16.32;74.71;99330.13;5191767;28;20483;-78
2021/05/16 09:00:43;;;;;;;12.60;2.42;;;;;;;16.56;72.35;99330.88;5194884;28;20041;-79
2021/05/16 09:03:16;;;;;;;10.50;2.38;;;;;;;16.41;71.88;99327.63;5189215;28;20041;-79
2021/05/16 09:05:49;;;;;;;15.68;2.75;;;;;;;16.47;72.60;99332.44;5181719;28;20041;-78
2021/05/16 09:08:22;;;;;;;9.60;2.33;;;;;;;16.25;71.74;99326.31;5191027;28;20037;-78
2021/05/16 09:10:57;;;;;;;15.68;2.63;;;;;;;16.38;73.35;99327.88;5189009;28;20026;-79
2021/05/16 09:13:29;;;;;;;;;;;;;;;17.12;71.22;99333.28;5193365;28;20644;-77
2021/05/16 09:16:02;;;;;;;10.15;2.47;;;;;;;17.48;70.09;99330.25;5194743;28;19918;-78
2021/05/16 09:18:38;;;;;;;10.52;2.10;;;;;;;17.81;68.56;99327.44;5191647;28;20072;-79
2021/05/16 09:21:28;;;;;;;15.90;2.40;;;;;;;17.52;71.10;99332.50;5186667;28;20038;-79
2021/05/16 09:24:02;;;;;;;12.40;2.47;;;;;;;17.82;65.87;99329.09;5185137;28;20642;-78
2021/05/16 09:26:55;;;;;;;15.63;2.50;;;;;;;17.72;67.47;99331.69;5197430;28;20032;-78
2021/05/16 09:29:33;;;;;;;8.95;2.10;;;;;;;17.30;66.59;99344.97;5182907;28;20033;-77
2021/05/16 09:32:04;;;;;;;11.48;2.20;;;;;;;17.57;67.45;99340.03;5197287;28;20076;-79
2021/05/16 09:34:35;;;;;;;9.50;2.08;;;;;;;17.72;66.96;99326.41;5183467;28;20026;-78
2021/05/16 09:37:07;;;;;;;11.70;2.20;;;;;;;18.14;66.55;99335.13;5190322;28;20494;-78
2021/05/16 09:39:38;;;;;;;14.20;2.33;;;;;;;17.86;66.36;99333.97;5187178;28;20038;-78
2021/05/16 09:42:14;;;;;;;11.32;2.20;;;;;;;18.01;67.10;99327.38;5193516;28;20036;-78
2021/05/16 09:44:48;;;;;;;;;;;;;;;18.27;67.89;99335.72;5199455;28;20103;-78
2021/05/16 09:47:19;;;;;;;10.13;2.50;;;;;;;17.77;69.41;99326.00;5185288;28;19913;-78
2021/05/16 09:49:59;;;;;;;10.48;2.20;;;;;;;18.70;68.62;99320.47;5184096;28;20553;-81
2021/05/16 09:52:31;;;;;;;10.48;2.05;;;;;;;18.70;65.91;99328.41;5190609;28;20067;-78
2021/05/16 09:55:05;;;;;;;10.68;2.40;;;;;;;18.88;64.74;99320.50;5195246;28;20029;-81
2021/05/16 09:57:43;;;;;;;12.25;2.58;;;;;;;18.63;64.65;99324.59;5187953;28;20080;-79
2021/05/16 10:00:17;;;;;;;10.32;2.00;;;;;;;18.47;63.75;99316.34;5186206;28;20396;-81
2021/05/16 10:02:47;;;;;;;8.20;1.77;;;;;;;18.59;64.74;99318.75;5182318;28;20553;-80
2021/05/16 10:05:18;;;;;;;8.15;1.60;;;;;;;18.95;65.44;99303.06;5184266;28;20029;-81
2021/05/16 10:07:49;;;;;;;8.20;1.97;;;;;;;19.92;62.25;99302.91;5185546;28;20666;-81
2021/05/16 10:10:19;;;;;;;9.07;2.00;;;;;;;20.37;62.14;99299.41;5198137;28;20287;-82
2021/05/16 10:12:50;;;;;;;10.13;1.83;;;;;;;20.02;62.74;99295.78;5182308;28;21166;-80
2021/05/16 10:15:23;;;;;;;9.38;1.90;;;;;;;20.65;62.63;99295.75;5187706;28;20290;-80
2021/05/16 10:17:56;;;;;;;7.65;1.80;;;;;;;19.90;61.99;99292.44;5181458;28;20033;-79
2021/05/16 10:20:28;;;;;;;7.43;1.90;;;;;;;19.59;60.81;99288.31;5182491;28;20152;-79
2021/05/16 10:23:04;;;;;;;9.18;1.95;;;;;;;19.86;61.00;99293.72;5183382;28;20029;-80
2021/05/16 10:25:48;;;;;;;9.98;2.00;;;;;;;18.45;63.34;99294.47;5203557;28;20447;-79
2021/05/16 10:28:53;;;;;;;8.90;1.95;;;;;;;18.53;62.77;99299.94;5201389;28;20087;-78
2021/05/16 10:31:47;;;;;;;7.78;1.83;;;;;;;18.15;63.97;99299.78;5168456;28;20104;-78
2021/05/16 10:34:23;;;;;;;9.63;1.80;;;;;;;18.10;67.02;99296.66;5184906;28;20030;-79
2021/05/16 10:36:59;;;;;;;8.70;1.80;;;;;;;17.26;69.16;99302.09;5181440;28;20069;-78
2021/05/16 10:39:39;;;;;;;10.07;1.88;;;;;;;17.16;71.38;99306.47;5193755;28;20038;-79
2021/05/16 10:42:14;;;;;;;9.40;1.90;;;;;;;16.86;74.14;99314.28;5202585;28;20503;-80
2021/05/16 10:45:03;;;;;;;7.97;2.13;;;;;;;16.45;78.45;99318.56;5202552;28;20059;-78
2021/05/16 10:47:42;;;;;;;5.65;1.80;;;;;;;16.36;78.68;99313.16;5196081;28;20112;-78
2021/05/16 10:50:31;;;;;;;4.20;1.05;;;;;;;16.67;77.41;99315.88;5203720;28;20494;-78
2021/05/16 10:53:15;;;;;;;4.35;1.00;;;;;;;16.60;74.25;99312.06;5203315;28;20104;-79
2021/05/16 10:55:50;;;;;;;4.18;0.90;;;;;;;17.00;75.52;99307.84;5203436;28;20028;-78
2021/05/16 10:58:33;;;;;;;3.20;0.80;;;;;;;17.03;74.12;99300.53;5202766;28;20033;-78
2021/05/16 11:01:12;;;;;;;5.40;1.02;;;;;;;17.99;71.41;99302.06;5191784;28;20029;-78
2021/05/16 11:03:45;;;;;;;3.17;0.80;;;;;;;18.23;65.80;99284.06;5183966;28;20029;-79
2021/05/16 11:06:31;;;;;;;4.75;1.00;;;;;;;18.48;67.33;99281.00;5185451;28;20704;-78
2021/05/16 11:09:02;;;;;;;3.70;1.15;;;;;;;18.12;67.07;99284.16;5180029;28;20029;-78
2021/05/16 11:11:47;;;;;;;5.57;1.25;;;;;;;18.21;69.15;99291.28;5202366;28;20038;-79
2021/05/16 11:14:21;;;;;;;5.28;1.25;;;;;;;18.27;67.98;99290.75;5202710;28;20461;-79
2021/05/16 11:17:03;;;;;;;8.70;1.23;;;;;;;18.05;67.86;99277.72;5193464;28;20040;-78
2021/05/16 11:19:35;;;;;;;8.65;1.50;;;;;;;17.91;66.06;99271.00;5187624;28;20544;-80
2021/05/16 11:22:11;;;;;;;6.47;1.20;;;;;;;17.64;67.58;99275.16;5187549;28;20055;-79
2021/05/16 11:24:47;;;;;;;3.78;0.85;;;;;;;17.08;67.55;99265.81;5191837;28;20108;-78
2021/05/16 11:27:37;;;;;;;8.40;1.30;;;;;;;16.92;68.54;99273.31;5182868;28;20070;-78
2021/05/16 11:30:09;;;;;;;8.68;1.73;;;;;;;17.48;69.40;99272.97;5179625;28;20041;-79
2021/05/16 11:32:39;;;;;;;9.45;1.85;;;;;;;17.38;66.35;99272.09;5185382;28;20546;-78
2021/05/16 11:35:21;;;;;;;7.85;1.52;;;;;;;17.34;67.05;99269.81;5184649;28;20061;-78
2021/05/16 11:37:56;;;;;;;5.97;1.50;;;;;;;17.53;67.37;99270.78;5185008;28;20021;-78
2021/05/16 11:40:31;;;;;;;7.30;1.70;;;;;;;17.58;66.75;99267.72;5188114;28;20040;-78
2021/05/16 11:43:06;;;;;;;7.13;1.60;;;;;;;17.24;65.88;99261.78;5185053;28;20017;-79
2021/05/16 11:45:41;;;;;;;6.93;1.90;;;;;;;17.63;66.38;99257.63;5185832;28;20488;-78
2021/05/16 11:48:30;;;;;;;8.23;1.70;;;;;;;18.02;64.75;99259.50;5181488;28;20105;-79
2021/05/16 11:51:14;;;;;;;5.38;1.40;;;;;;;18.58;67.01;99244.78;5185880;28;20026;-78
2021/05/16 11:53:51;;;;;;;7.35;1.42;;;;;;;18.81;65.69;99247.03;5191748;28;20031;-78